Time;durP1;ratioP1;P1;durP2;ratioP2;P2;SDS_P1;SDS_P2;PMS_P1;PMS_P2;Temp;Humidity;BMP_temperature;BMP_pressure;BME280_temperature;BME280_humidity;BME280_pressure;Samples;Min_cycle;Max_cycle;Signal;HPM_P1;HPM_P2
2024/01/28 00:00:39;;;;;;;21.80;15.60;;;;;;;1.24;91.28;100617.63;105908;1251;59670;-79
2024/01/28 00:03:07;;;;;;;22.60;15.60;;;;;;;1.19;90.93;100620.73;106770;1256;59552;-79
2024/01/28 00:05:36;;;;;;;21.60;15.00;;;;;;;1.13;91.06;100627.31;106048;1257;73245;-79
2024/01/28 00:08:07;;;;;;;25.50;15.20;;;;;;;1.18;90.81;100629.50;106167;1257;69223;-79
2024/01/28 00:10:35;;;;;;;19.70;13.60;;;;;;;1.23;90.48;100631.31;105956;1254;74928;-79
2024/01/28 00:13:03;;;;;;;22.40;14.90;;;;;;;1.21;90.73;100632.16;105938;1257;59766;-79
2024/01/28 00:15:30;;;;;;;20.80;15.50;;;;;;;1.15;90.93;100634.36;105798;1259;59539;-79
2024/01/28 00:17:58;;;;;;;24.60;16.30;;;;;;;1.08;90.99;100635.11;105931;1258;73276;-78
2024/01/28 00:20:25;;;;;;;22.90;16.40;;;;;;;1.07;91.34;100640.92;105993;1251;69346;-77
2024/01/28 00:22:53;;;;;;;20.10;14.60;;;;;;;1.16;91.11;100637.81;105845;1254;72700;-79
2024/01/28 00:25:20;;;;;;;21.00;14.30;;;;;;;1.24;90.77;100637.04;105894;1252;59615;-78
2024/01/28 00:27:48;;;;;;;22.00;16.50;;;;;;;1.22;90.77;100644.49;105897;1254;60246;-79
2024/01/28 00:30:16;;;;;;;24.70;16.10;;;;;;;1.18;90.87;100644.19;106210;1257;72882;-79
2024/01/28 00:32:44;;;;;;;25.00;16.20;;;;;;;1.14;90.77;100644.73;107605;1257;70161;-80
2024/01/28 00:35:11;;;;;;;21.70;15.40;;;;;;;1.13;90.84;100646.73;106294;1251;72710;-80
2024/01/28 00:37:39;;;;;;;20.50;14.30;;;;;;;1.20;90.54;100651.55;106484;1257;59738;-79
2024/01/28 00:40:08;;;;;;;21.30;14.70;;;;;;;1.26;90.14;100652.30;106758;1252;60007;-79
2024/01/28 00:42:35;;;;;;;20.50;14.50;;;;;;;1.23;90.43;100650.38;106788;1257;70838;-80
2024/01/28 00:45:03;;;;;;;23.70;16.90;;;;;;;1.17;90.38;100651.20;106558;1251;69380;-79
2024/01/28 00:47:31;;;;;;;23.70;15.20;;;;;;;1.13;90.47;100657.55;109236;1251;71203;-79
2024/01/28 00:49:58;;;;;;;25.40;16.10;;;;;;;1.13;90.25;100659.75;108995;1253;59586;-80
2024/01/28 00:52:26;;;;;;;22.40;15.60;;;;;;;1.23;89.95;100662.59;107505;1257;59571;-81
2024/01/28 00:54:53;;;;;;;21.60;16.00;;;;;;;1.23;89.86;100663.60;106790;1253;72070;-81
2024/01/28 00:57:22;;;;;;;24.00;17.20;;;;;;;1.17;89.90;100661.48;106621;1254;68721;-80
2024/01/28 00:59:50;;;;;;;26.20;20.50;;;;;;;1.11;89.85;100662.70;106521;1253;72607;-79
2024/01/28 01:02:18;;;;;;;24.60;18.40;;;;;;;1.15;89.95;100665.45;106980;1254;60527;-78
2024/01/28 01:04:45;;;;;;;20.40;14.50;;;;;;;1.19;89.90;100666.10;106086;1251;60578;-85
2024/01/28 01:07:13;;;;;;;23.50;16.70;;;;;;;1.14;89.96;100666.89;106261;1251;72983;-79
2024/01/28 01:09:41;;;;;;;22.50;16.60;;;;;;;1.09;89.98;100671.02;106188;1251;69922;-79
2024/01/28 01:12:09;;;;;;;23.90;16.20;;;;;;;1.02;89.87;100677.68;106097;1258;72774;-78
2024/01/28 01:14:37;;;;;;;24.80;15.50;;;;;;;1.04;89.73;100684.73;105961;1254;60545;-80
2024/01/28 01:17:05;;;;;;;24.90;16.90;;;;;;;1.07;89.44;100688.42;106040;1254;60385;-76
2024/01/28 01:19:32;;;;;;;24.40;17.30;;;;;;;1.03;89.85;100686.50;106546;1251;73947;-78
2024/01/28 01:22:02;;;;;;;24.20;18.20;;;;;;;1.00;90.21;100685.64;106995;1251;70389;-77
2024/01/28 01:24:30;;;;;;;27.20;18.20;;;;;;;0.95;90.32;100686.23;106274;1257;71387;-80
2024/01/28 01:26:57;;;;;;;23.70;16.60;;;;;;;0.92;90.16;100690.03;105965;1259;60422;-77
2024/01/28 01:29:25;;;;;;;22.30;15.60;;;;;;;1.00;90.00;100696.09;106682;1251;60540;-80
2024/01/28 01:31:54;;;;;;;23.40;17.00;;;;;;;1.02;89.88;100697.23;107335;1254;74004;-77
2024/01/28 01:34:22;;;;;;;24.70;17.60;;;;;;;0.98;90.34;100700.02;109199;1251;70171;-79
2024/01/28 01:36:50;;;;;;;26.70;19.20;;;;;;;0.98;90.53;100705.11;108977;1253;72788;-77
2024/01/28 01:39:19;;;;;;;25.60;17.50;;;;;;;0.97;90.57;100709.35;106672;1255;60556;-75
2024/01/28 01:41:46;;;;;;;22.00;15.60;;;;;;;1.06;90.30;100708.85;107137;1251;60371;-79
2024/01/28 01:44:14;;;;;;;25.40;16.70;;;;;;;1.12;89.74;100711.14;106189;1254;72403;-78
2024/01/28 01:46:42;;;;;;;24.00;16.80;;;;;;;1.08;90.01;100720.06;108313;1253;69628;-78
2024/01/28 01:49:10;;;;;;;26.30;18.70;;;;;;;1.02;90.17;100720.41;108754;1254;71134;-81
2024/01/28 01:51:38;;;;;;;27.70;19.60;;;;;;;1.01;90.55;100724.85;107545;1255;60416;-77
2024/01/28 01:54:06;;;;;;;27.00;17.80;;;;;;;1.00;90.39;100730.13;106606;1251;60443;-78
2024/01/28 01:56:34;;;;;;;27.30;17.70;;;;;;;1.07;90.21;100731.63;106507;1251;73725;-79
2024/01/28 01:59:05;;;;;;;26.10;17.50;;;;;;;1.14;89.92;100737.05;106665;1257;70184;-78
2024/01/28 02:01:34;;;;;;;24.60;17.10;;;;;;;1.09;89.95;100740.42;106233;1251;72489;-79
2024/01/28 02:04:02;;;;;;;25.80;18.30;;;;;;;1.02;89.96;100738.21;106104;1256;60435;-78
2024/01/28 02:06:30;;;;;;;24.60;16.10;;;;;;;0.94;90.21;100739.83;105841;1257;60286;-79
2024/01/28 02:08:58;;;;;;;26.10;17.00;;;;;;;0.91;90.29;100740.39;105831;1251;73880;-77
2024/01/28 02:11:25;;;;;;;27.80;17.40;;;;;;;0.97;90.22;100739.67;105918;1256;68828;-78
2024/01/28 02:13:53;;;;;;;26.20;17.70;;;;;;;1.02;90.34;100744.16;105879;1254;71668;-77
2024/01/28 02:16:20;;;;;;;26.10;17.50;;;;;;;0.99;90.37;100749.55;105715;1256;60547;-79
2024/01/28 02:18:48;;;;;;;25.50;17.40;;;;;;;0.93;90.60;100751.42;105823;1256;60349;-79
2024/01/28 02:21:15;;;;;;;27.80;18.80;;;;;;;0.88;90.65;100751.16;105973;1251;72976;-78
2024/01/28 02:23:43;;;;;;;25.30;17.50;;;;;;;0.90;90.49;100752.61;105846;1251;68699;-78
2024/01/28 02:26:10;;;;;;;26.20;16.80;;;;;;;0.95;90.43;100753.43;105830;1251;71322;-77
2024/01/28 02:28:38;;;;;;;28.10;19.00;;;;;;;0.92;90.56;100755.28;106392;1253;61206;-77
2024/01/28 02:31:05;;;;;;;26.80;17.80;;;;;;;0.87;90.73;100756.47;105930;1251;60627;-80
2024/01/28 02:33:33;;;;;;;30.30;19.20;;;;;;;0.82;90.87;100756.91;105872;1251;72802;-78
2024/01/28 02:36:01;;;;;;;29.70;18.90;;;;;;;0.88;90.97;100755.36;105803;1251;70955;-80
2024/01/28 02:38:29;;;;;;;28.50;18.50;;;;;;;0.94;90.71;100757.46;105880;1255;70140;-78
2024/01/28 02:40:56;;;;;;;28.50;19.00;;;;;;;0.93;90.78;100759.96;106012;1257;60487;-79
2024/01/28 02:43:24;;;;;;;32.80;19.50;;;;;;;0.88;90.87;100767.02;105877;1251;60636;-78
2024/01/28 02:45:51;;;;;;;29.00;18.50;;;;;;;0.84;90.94;100767.80;108332;1253;72450;-78
2024/01/28 02:48:19;;;;;;;29.80;19.00;;;;;;;0.86;90.63;100768.01;109350;1251;71373;-77
2024/01/28 02:50:46;;;;;;;25.20;17.80;;;;;;;0.93;90.41;100769.91;109225;1253;72789;-76
2024/01/28 02:53:14;;;;;;;30.10;18.30;;;;;;;0.94;90.60;100771.77;107416;1251;60478;-78
2024/01/28 02:55:42;;;;;;;28.80;19.60;;;;;;;0.91;90.43;100774.73;106721;1251;60423;-79
2024/01/28 02:58:09;;;;;;;29.20;18.90;;;;;;;0.85;90.50;100779.92;107017;1258;72657;-79
2024/01/28 03:00:37;;;;;;;28.80;18.60;;;;;;;0.89;90.62;100785.80;107197;1251;70311;-80
2024/01/28 03:03:07;;;;;;;30.30;20.60;;;;;;;0.96;90.69;100784.57;106379;1256;73017;-78
2024/01/28 03:05:35;;;;;;;27.90;17.60;;;;;;;0.97;90.90;100791.48;106432;1257;60636;-76
2024/01/28 03:08:02;;;;;;;28.20;19.20;;;;;;;0.96;90.78;100797.67;106145;1257;60383;-76
2024/01/28 03:10:31;;;;;;;31.50;18.90;;;;;;;0.91;90.64;100796.55;106091;1253;74013;-75
2024/01/28 03:12:59;;;;;;;27.90;17.40;;;;;;;0.93;90.44;100804.59;106193;1253;70087;-78
2024/01/28 03:15:26;;;;;;;26.80;17.70;;;;;;;0.98;90.23;100806.98;106076;1254;71474;-77
2024/01/28 03:17:54;;;;;;;28.60;19.30;;;;;;;0.92;90.29;100813.41;106006;1256;60450;-74
2024/01/28 03:20:21;;;;;;;31.80;21.80;;;;;;;0.84;90.47;100815.05;106083;1251;60444;-77
2024/01/28 03:22:49;;;;;;;27.40;17.50;;;;;;;0.78;90.81;100818.29;106018;1254;73880;-77
2024/01/28 03:25:16;;;;;;;30.90;19.10;;;;;;;0.81;90.63;100826.53;106072;1251;68711;-76
2024/01/28 03:27:44;;;;;;;29.70;19.80;;;;;;;0.87;90.68;100823.59;106074;1256;71815;-76
2024/01/28 03:30:11;;;;;;;33.00;20.80;;;;;;;0.88;91.24;100826.66;106347;1253;60565;-78
2024/01/28 03:32:39;;;;;;;31.30;19.30;;;;;;;0.86;91.09;100827.52;106145;1251;60592;-77
2024/01/28 03:35:10;;;;;;;26.30;18.40;;;;;;;0.82;91.00;100830.16;106436;1253;72578;-76
2024/01/28 03:37:38;;;;;;;27.70;18.70;;;;;;;0.86;91.15;100835.14;106440;1253;70438;-76
2024/01/28 03:40:06;;;;;;;31.10;20.10;;;;;;;0.92;90.78;100835.72;106010;1251;71424;-77
2024/01/28 03:42:33;;;;;;;32.90;20.40;;;;;;;0.92;90.83;100837.48;106477;1253;59251;-78
2024/01/28 03:45:01;;;;;;;29.40;19.20;;;;;;;0.85;90.67;100841.13;108348;1251;60286;-78
2024/01/28 03:47:29;;;;;;;33.00;21.60;;;;;;;0.81;90.82;100843.45;107356;1253;72578;-76
2024/01/28 03:49:57;;;;;;;33.90;20.60;;;;;;;0.84;90.85;100845.58;107228;1252;70848;-80
2024/01/28 03:52:24;;;;;;;31.80;20.10;;;;;;;0.90;90.56;100849.46;106463;1253;72720;-79
2024/01/28 03:54:52;;;;;;;30.00;19.90;;;;;;;0.89;90.62;100851.39;106489;1253;60493;-79
2024/01/28 03:57:20;;;;;;;33.70;20.90;;;;;;;0.86;90.80;100856.83;107094;1254;60485;-81
2024/01/28 03:59:48;;;;;;;33.60;21.10;;;;;;;0.83;91.02;100860.94;106102;1253;72579;-82
2024/01/28 04:02:15;;;;;;;32.80;20.30;;;;;;;0.80;90.85;100866.50;106654;1257;68848;-83
2024/01/28 04:04:43;;;;;;;34.90;20.90;;;;;;;0.84;90.51;100873.63;106094;1253;72654;-82
2024/01/28 04:07:10;;;;;;;33.40;20.50;;;;;;;0.88;90.39;100876.56;106043;1253;60416;-82
2024/01/28 04:09:38;;;;;;;34.40;21.30;;;;;;;0.83;90.57;100881.17;106128;1257;60346;-83
2024/01/28 04:12:06;;;;;;;35.10;22.70;;;;;;;0.78;91.11;100885.64;105914;1253;73887;-81
2024/01/28 04:14:33;;;;;;;31.70;21.20;;;;;;;0.76;91.34;100892.52;105931;1257;70752;-81
2024/01/28 04:17:01;;;;;;;36.20;22.50;;;;;;;0.83;91.26;100893.02;106018;1256;72623;-80
2024/01/28 04:19:28;;;;;;;33.20;19.90;;;;;;;0.91;91.11;100898.39;106373;1256;60546;-81
2024/01/28 04:21:56;;;;;;;38.60;23.10;;;;;;;0.89;91.04;100903.90;106265;1257;60356;-81
2024/01/28 04:24:24;;;;;;;35.30;21.80;;;;;;;0.84;91.31;100908.32;106536;1253;72542;-80
2024/01/28 04:26:53;;;;;;;34.10;21.80;;;;;;;0.82;91.42;100909.30;106583;1253;70143;-80
2024/01/28 04:29:20;;;;;;;31.90;21.60;;;;;;;0.89;91.04;100910.18;106072;1253;73578;-78
2024/01/28 04:31:48;;;;;;;33.90;21.00;;;;;;;0.96;90.72;100909.14;106025;1253;60527;-81
2024/01/28 04:34:15;;;;;;;33.30;21.60;;;;;;;0.93;90.62;100911.73;106532;1253;60527;-80
2024/01/28 04:36:43;;;;;;;35.60;20.90;;;;;;;0.85;90.58;100920.17;106279;1253;72798;-79
2024/01/28 04:39:12;;;;;;;31.50;19.90;;;;;;;0.80;90.91;100922.67;106161;1253;69966;-78
2024/01/28 04:41:40;;;;;;;54.60;32.80;;;;;;;0.86;90.68;100923.58;106041;1254;71255;-80
2024/01/28 04:44:08;;;;;;;32.90;21.50;;;;;;;0.93;90.53;100931.27;106866;1253;60642;-81
2024/01/28 04:46:36;;;;;;;37.40;26.00;;;;;;;0.90;90.66;100932.99;109439;1252;58825;-81
2024/01/28 04:49:04;;;;;;;40.50;27.30;;;;;;;0.89;91.17;100936.71;108869;1253;72606;-81
2024/01/28 04:51:31;;;;;;;35.10;22.20;;;;;;;0.87;91.02;100938.53;107068;1253;70737;-81
2024/01/28 04:53:59;;;;;;;38.50;24.60;;;;;;;0.91;90.55;100939.71;107533;1251;70962;-81
2024/01/28 04:56:26;;;;;;;37.30;23.20;;;;;;;0.96;90.33;100941.20;107843;1251;60460;-79
2024/01/28 04:58:54;;;;;;;34.60;23.40;;;;;;;0.95;90.66;100941.11;108384;1251;60564;-80
2024/01/28 05:01:22;;;;;;;35.40;22.30;;;;;;;0.93;90.83;100941.72;107054;1256;72606;-80
2024/01/28 05:03:49;;;;;;;32.00;21.30;;;;;;;0.89;90.51;100940.02;105907;1257;69146;-80
2024/01/28 05:06:18;;;;;;;31.80;20.80;;;;;;;0.93;90.27;100942.61;106008;1256;70705;-79
2024/01/28 05:08:47;;;;;;;36.30;21.30;;;;;;;0.98;90.21;100945.16;105975;1253;60483;-79
2024/01/28 05:11:14;;;;;;;44.20;27.80;;;;;;;0.97;90.91;100947.77;105998;1252;60485;-77
2024/01/28 05:13:42;;;;;;;36.90;22.20;;;;;;;0.98;90.82;100953.02;105810;1260;76042;-77
2024/01/28 05:16:11;;;;;;;46.80;21.90;;;;;;;0.93;90.56;100952.19;105921;1253;70815;-78
2024/01/28 05:18:38;;;;;;;32.00;21.50;;;;;;;0.98;90.57;100957.52;106037;1251;71282;-81
2024/01/28 05:21:06;;;;;;;33.90;21.10;;;;;;;1.06;90.41;100961.67;106055;1253;60520;-79
2024/01/28 05:23:34;;;;;;;30.60;19.70;;;;;;;1.02;90.12;100967.13;106473;1255;60460;-79
2024/01/28 05:26:01;;;;;;;35.10;23.20;;;;;;;0.93;90.15;100971.58;107444;1252;73591;-79
2024/01/28 05:28:30;;;;;;;32.60;19.50;;;;;;;0.90;90.45;100981.84;107822;1251;70489;-81
2024/01/28 05:30:57;;;;;;;29.80;19.50;;;;;;;0.96;90.18;100983.10;108419;1251;71432;-79
2024/01/28 05:33:25;;;;;;;31.30;20.50;;;;;;;1.04;89.79;100986.05;108427;1253;59190;-77
2024/01/28 05:35:53;;;;;;;34.00;21.50;;;;;;;1.01;89.88;100991.78;107030;1256;59095;-77
2024/01/28 05:38:20;;;;;;;33.40;20.40;;;;;;;0.96;90.06;100996.70;108086;1252;72625;-78
2024/01/28 05:40:48;;;;;;;29.90;19.60;;;;;;;0.93;89.92;101002.97;108823;1251;68694;-80
2024/01/28 05:43:15;;;;;;;32.80;20.30;;;;;;;1.00;89.77;101002.47;108765;1251;71510;-79
2024/01/28 05:45:43;;;;;;;30.80;20.10;;;;;;;1.07;89.52;101006.29;108696;1251;60380;-79
2024/01/28 05:48:11;;;;;;;32.00;20.20;;;;;;;1.04;89.49;101013.07;109355;1251;59240;-81
2024/01/28 05:50:38;;;;;;;31.40;20.70;;;;;;;1.01;89.78;101014.27;107825;1253;72426;-80
2024/01/28 05:53:06;;;;;;;34.00;20.10;;;;;;;0.98;89.71;101014.24;107781;1253;68726;-80
2024/01/28 05:55:33;;;;;;;30.90;19.50;;;;;;;1.04;89.50;101021.10;106768;1253;71424;-78
2024/01/28 05:58:01;;;;;;;31.40;21.40;;;;;;;1.10;89.24;101024.29;105952;1253;62055;-78
2024/01/28 06:00:28;;;;;;;30.90;20.20;;;;;;;1.08;89.52;101022.63;105833;1257;60563;-84
2024/01/28 06:02:56;;;;;;;34.80;22.70;;;;;;;1.04;89.71;101028.06;106114;1253;72643;-82
2024/01/28 06:05:23;;;;;;;33.90;21.10;;;;;;;0.99;89.82;101027.63;106129;1257;69022;-84
2024/01/28 06:07:51;;;;;;;31.60;19.00;;;;;;;0.96;89.53;101031.23;105918;1251;70493;-83
2024/01/28 06:10:19;;;;;;;31.20;20.90;;;;;;;1.03;89.00;101035.80;106171;1253;61174;-83
2024/01/28 06:12:47;;;;;;;31.80;20.40;;;;;;;1.03;88.97;101041.19;106022;1253;60312;-84
2024/01/28 06:15:15;;;;;;;35.10;21.00;;;;;;;0.97;89.39;101042.35;106736;1251;73268;-82
2024/01/28 06:17:42;;;;;;;31.60;20.80;;;;;;;0.94;89.39;101048.27;106247;1256;68993;-81
2024/01/28 06:20:10;;;;;;;34.70;22.90;;;;;;;0.89;89.20;101055.30;106560;1253;74733;-82
2024/01/28 06:22:38;;;;;;;31.90;21.30;;;;;;;0.96;89.15;101058.30;108463;1251;61166;-83
2024/01/28 06:25:06;;;;;;;31.30;20.30;;;;;;;0.99;88.99;101060.92;106305;1251;60388;-83
2024/01/28 06:27:34;;;;;;;37.30;22.20;;;;;;;0.95;89.47;101064.41;106258;1253;74087;-83
2024/01/28 06:30:01;;;;;;;35.40;22.40;;;;;;;0.91;89.53;101071.09;106203;1257;69011;-82
2024/01/28 06:32:29;;;;;;;30.30;20.60;;;;;;;0.88;89.57;101075.61;105880;1258;72258;-78
2024/01/28 06:34:57;;;;;;;30.20;20.20;;;;;;;0.90;88.89;101083.35;106252;1257;60450;-80
2024/01/28 06:37:24;;;;;;;33.50;21.30;;;;;;;0.92;88.40;101086.23;106752;1256;60461;-81
2024/01/28 06:39:52;;;;;;;34.10;21.60;;;;;;;0.87;88.94;101091.70;106394;1253;72577;-80
2024/01/28 06:42:20;;;;;;;33.30;21.00;;;;;;;0.81;89.27;101089.88;106968;1251;70371;-81
2024/01/28 06:44:47;;;;;;;36.90;22.80;;;;;;;0.78;89.64;101090.90;108209;1254;71393;-81
2024/01/28 06:47:15;;;;;;;31.70;21.10;;;;;;;0.74;89.72;101093.85;107858;1251;60908;-82
2024/01/28 06:49:43;;;;;;;33.60;22.20;;;;;;;0.83;89.51;101093.79;107786;1251;60434;-81
2024/01/28 06:52:11;;;;;;;36.00;22.00;;;;;;;0.93;89.35;101092.24;107548;1251;72439;-81
2024/01/28 06:54:41;;;;;;;32.90;21.50;;;;;;;0.92;89.44;101098.26;106753;1251;70150;-80
2024/01/28 06:57:13;;;;;;;31.50;21.60;;;;;;;0.87;89.43;101101.99;106036;1253;71780;-79
2024/01/28 06:59:44;;;;;;;35.30;22.40;;;;;;;0.82;89.49;101101.70;105918;1255;60579;-81
2024/01/28 07:02:12;;;;;;;28.30;19.80;;;;;;;0.88;89.17;101108.39;106023;1251;60546;-80
2024/01/28 07:04:39;;;;;;;30.90;21.40;;;;;;;0.92;89.08;101115.01;105972;1251;71893;-82
2024/01/28 07:07:08;;;;;;;34.80;22.30;;;;;;;0.89;89.66;101117.92;105960;1253;69983;-80
2024/01/28 07:09:35;;;;;;;34.10;22.40;;;;;;;0.87;89.63;101119.60;105949;1253;71621;-82
2024/01/28 07:12:05;;;;;;;34.40;21.70;;;;;;;0.85;89.44;101125.27;105906;1253;60457;-83
2024/01/28 07:14:33;;;;;;;34.00;21.40;;;;;;;0.89;89.32;101125.07;106391;1251;60349;-83
2024/01/28 07:17:01;;;;;;;33.70;21.60;;;;;;;0.94;89.07;101126.08;105999;1251;72639;-81
2024/01/28 07:19:29;;;;;;;30.80;20.90;;;;;;;0.91;89.47;101123.57;107480;1251;69989;-84
2024/01/28 07:21:56;;;;;;;33.10;21.50;;;;;;;0.88;89.44;101134.17;107245;1260;72731;-82
2024/01/28 07:24:24;;;;;;;32.10;20.60;;;;;;;0.84;89.42;101134.57;106600;1254;60490;-83
2024/01/28 07:26:51;;;;;;;33.20;20.90;;;;;;;0.86;89.51;101141.80;106344;1257;60361;-83
2024/01/28 07:29:19;;;;;;;31.70;22.10;;;;;;;0.98;89.06;101135.66;106355;1253;72462;-82
2024/01/28 07:31:46;;;;;;;34.00;22.90;;;;;;;0.99;89.01;101139.61;106904;1251;70199;-82
2024/01/28 07:34:18;;;;;;;34.20;23.40;;;;;;;0.95;89.23;101144.14;106033;1252;71340;-81
2024/01/28 07:36:47;;;;;;;37.00;23.40;;;;;;;0.93;89.41;101145.84;106071;1251;60483;-80
2024/01/28 07:39:15;;;;;;;34.50;21.60;;;;;;;0.93;89.34;101153.00;106202;1251;60384;-80
2024/01/28 07:41:43;;;;;;;34.30;21.50;;;;;;;1.00;89.07;101151.25;106076;1258;73880;-77
2024/01/28 07:44:10;;;;;;;36.80;22.60;;;;;;;1.08;88.96;101160.33;108264;1251;70105;-80
2024/01/28 07:46:37;;;;;;;32.40;22.00;;;;;;;1.06;88.94;101163.35;108980;1251;72664;-78
2024/01/28 07:49:05;;;;;;;38.40;23.30;;;;;;;1.06;89.12;101166.34;108630;1251;58175;-79
2024/01/28 07:51:33;;;;;;;33.50;22.00;;;;;;;1.06;89.06;101169.15;107339;1257;60540;-80
2024/01/28 07:54:00;;;;;;;37.30;22.20;;;;;;;1.05;88.90;101166.91;106556;1255;73876;-80
2024/01/28 07:56:28;;;;;;;36.40;21.70;;;;;;;1.12;88.71;101167.97;106527;1253;70123;-81
2024/01/28 07:58:55;;;;;;;34.30;23.30;;;;;;;1.20;88.47;101177.56;105905;1253;71523;-81
2024/01/28 08:01:23;;;;;;;36.00;22.90;;;;;;;1.20;88.76;101173.90;106038;1251;60509;-80
2024/01/28 08:03:51;;;;;;;37.90;23.90;;;;;;;1.19;88.86;101183.33;106907;1253;60374;-80
2024/01/28 08:06:19;;;;;;;44.00;24.60;;;;;;;1.16;88.57;101188.35;106360;1251;73638;-81
2024/01/28 08:08:47;;;;;;;36.10;22.40;;;;;;;1.12;88.72;101192.73;106186;1256;69065;-80
2024/01/28 08:11:15;;;;;;;36.00;23.30;;;;;;;1.24;88.67;101196.39;106167;1260;71487;-80
2024/01/28 08:13:42;;;;;;;36.70;23.80;;;;;;;1.34;88.44;101197.13;106075;1253;60909;-80
2024/01/28 08:16:10;;;;;;;36.20;22.80;;;;;;;1.33;88.24;101203.79;106083;1253;60410;-80
2024/01/28 08:18:39;;;;;;;36.80;22.60;;;;;;;1.28;87.89;101207.36;107453;1251;72628;-80
2024/01/28 08:21:07;;;;;;;36.00;21.80;;;;;;;1.20;87.75;101212.95;106103;1255;68605;-81
2024/01/28 08:23:34;;;;;;;34.80;21.90;;;;;;;1.20;87.78;101215.05;106220;1255;74808;-81
2024/01/28 08:26:02;;;;;;;36.10;21.90;;;;;;;1.29;87.80;101215.67;106340;1257;59285;-81
2024/01/28 08:28:29;;;;;;;34.80;22.70;;;;;;;1.29;87.73;101216.73;105960;1251;60398;-81
2024/01/28 08:30:57;;;;;;;38.70;25.50;;;;;;;1.25;87.85;101219.23;106482;1253;72607;-81
2024/01/28 08:33:25;;;;;;;42.20;28.60;;;;;;;1.19;87.80;101222.61;105959;1251;72540;-82
2024/01/28 08:35:52;;;;;;;42.70;25.60;;;;;;;1.14;87.87;101224.73;106174;1253;71421;-81
2024/01/28 08:38:20;;;;;;;35.20;25.00;;;;;;;1.20;87.71;101224.48;106189;1253;60386;-79
2024/01/28 08:40:48;;;;;;;38.60;23.60;;;;;;;1.26;87.30;101228.38;106723;1252;60518;-83
2024/01/28 08:43:15;;;;;;;39.80;24.50;;;;;;;1.23;87.43;101229.09;109185;1250;73950;-82
2024/01/28 08:45:43;;;;;;;37.30;25.50;;;;;;;1.20;87.77;101231.32;108310;1253;68853;-81
2024/01/28 08:48:11;;;;;;;35.90;22.60;;;;;;;1.20;88.18;101232.71;108539;1253;71544;-82
2024/01/28 08:50:38;;;;;;;34.90;23.20;;;;;;;1.22;88.15;101237.52;107600;1251;59610;-81
2024/01/28 08:53:07;;;;;;;32.80;20.70;;;;;;;1.33;87.72;101237.67;107567;1253;60398;-82
2024/01/28 08:55:35;;;;;;;33.20;20.70;;;;;;;1.44;87.41;101235.08;106488;1253;73038;-82
2024/01/28 08:58:02;;;;;;;34.00;21.40;;;;;;;1.43;86.99;101234.77;106962;1257;70026;-83
2024/01/28 09:00:30;;;;;;;35.90;22.40;;;;;;;1.37;87.28;101235.38;106119;1254;72717;-82
2024/01/28 09:02:57;;;;;;;31.90;21.20;;;;;;;1.32;87.25;101235.63;106501;1251;60545;-82
2024/01/28 09:05:25;;;;;;;34.60;21.20;;;;;;;1.29;87.51;101236.48;106260;1253;60446;-80
2024/01/28 09:07:53;;;;;;;34.10;20.40;;;;;;;1.30;87.76;101241.62;108176;1252;156332;-80
2024/01/28 09:11:18;;;;;;;31.00;20.00;;;;;;;1.50;87.18;101243.84;103354;1294;599309;-82
2024/01/28 09:13:45;;;;;;;33.90;21.10;;;;;;;1.52;86.80;101247.77;106042;1259;58853;-81
2024/01/28 09:16:13;;;;;;;33.60;21.00;;;;;;;1.51;87.03;101242.93;107701;1261;60233;-81
2024/01/28 09:18:42;;;;;;;34.30;22.20;;;;;;;1.51;86.93;101244.88;105649;1262;72582;-81
2024/01/28 09:21:10;;;;;;;31.60;19.40;;;;;;;1.51;87.01;101243.61;106259;1262;70477;-80
2024/01/28 09:23:38;;;;;;;30.60;19.80;;;;;;;1.63;86.78;101251.07;105690;1266;71724;-80
2024/01/28 09:26:08;;;;;;;31.20;19.20;;;;;;;1.75;86.32;101248.25;105835;1257;147081;-78
2024/01/28 09:29:27;;;;;;;33.40;21.10;;;;;;;1.73;86.44;101246.58;105623;1259;59009;-79
2024/01/28 09:31:59;;;;;;;50.80;31.20;;;;;;;1.74;86.55;101247.77;106347;1255;71909;-81
2024/01/28 09:34:28;;;;;;;33.10;22.80;;;;;;;1.75;86.46;101247.89;106709;1256;69221;-79
2024/01/28 09:36:56;;;;;;;35.90;21.70;;;;;;;1.76;86.34;101248.02;107252;1255;70364;-77
2024/01/28 09:39:23;;;;;;;31.60;19.50;;;;;;;1.75;86.06;101247.02;108762;1255;59887;-77
2024/01/28 09:42:00;;;;;;;32.70;20.40;;;;;;;1.83;85.63;101249.97;108473;1255;58825;-76
2024/01/28 09:44:27;;;;;;;29.70;20.00;;;;;;;1.92;85.39;101252.14;107195;1261;72980;-79
2024/01/28 09:46:55;;;;;;;29.20;19.20;;;;;;;1.94;85.57;101255.55;106956;1260;69484;-78
2024/01/28 09:49:22;;;;;;;29.10;20.30;;;;;;;1.94;85.82;101257.42;106482;1255;72711;-78
2024/01/28 09:51:50;;;;;;;29.90;19.90;;;;;;;1.95;85.61;101256.88;106386;1260;59488;-80
2024/01/28 09:54:18;;;;;;;30.40;18.70;;;;;;;1.94;84.96;101262.00;106819;1255;59633;-82
2024/01/28 09:56:46;;;;;;;30.10;18.80;;;;;;;1.93;84.46;101259.95;106884;1255;73067;-80
2024/01/28 09:59:14;;;;;;;30.60;19.50;;;;;;;1.98;84.01;101262.16;106409;1256;68803;-80
2024/01/28 10:01:42;;;;;;;29.90;19.80;;;;;;;1.94;84.20;101262.86;105915;1258;72516;-79
2024/01/28 10:04:15;;;;;;;32.50;21.50;;;;;;;1.90;84.18;101262.54;105773;1256;59738;-80
2024/01/28 10:06:46;;;;;;;29.50;21.10;;;;;;;1.88;84.64;101264.57;105820;1259;59586;-80
2024/01/28 10:09:14;;;;;;;30.30;19.80;;;;;;;1.87;84.66;101262.66;105618;1260;72929;-78
2024/01/28 10:11:41;;;;;;;27.50;19.00;;;;;;;1.94;84.32;101262.66;106082;1260;69205;-79
2024/01/28 10:14:09;;;;;;;29.30;20.00;;;;;;;2.01;83.85;101265.52;105870;1259;72805;-78
2024/01/28 10:16:38;;;;;;;29.00;20.20;;;;;;;1.96;83.52;101274.64;105605;1256;59697;-78
2024/01/28 10:19:05;;;;;;;28.70;18.30;;;;;;;1.88;83.58;101276.24;105586;1261;60284;-78
2024/01/28 10:21:33;;;;;;;27.30;19.50;;;;;;;1.84;83.65;101277.02;105574;1261;73113;-77
2024/01/28 10:24:01;;;;;;;27.30;18.30;;;;;;;1.78;83.76;101278.13;105739;1261;69089;-79
2024/01/28 10:26:29;;;;;;;27.50;18.40;;;;;;;1.74;83.62;101280.44;105681;1259;72927;-79
2024/01/28 10:28:57;;;;;;;28.80;18.90;;;;;;;1.80;83.25;101276.33;105699;1259;60861;-77
2024/01/28 10:31:24;;;;;;;27.80;18.50;;;;;;;1.83;83.34;101282.30;105736;1256;59798;-78
2024/01/28 10:33:52;;;;;;;26.60;17.90;;;;;;;1.79;83.33;101284.54;106595;1255;73145;-79
2024/01/28 10:36:19;;;;;;;27.80;18.70;;;;;;;1.72;83.00;101285.41;108887;1256;68744;-78
2024/01/28 10:38:48;;;;;;;26.70;17.80;;;;;;;1.65;83.23;101288.04;107936;1259;72027;-79
2024/01/28 10:41:19;;;;;;;23.30;16.80;;;;;;;1.61;83.22;101291.55;106763;1260;59735;-76
2024/01/28 10:44:05;;;;;;;25.20;16.40;;;;;;;1.62;82.82;101296.92;106065;1256;59598;-79
2024/01/28 10:46:41;;;;;;;28.60;20.00;;;;;;;1.63;82.73;101296.85;105446;1263;72160;-77
2024/01/28 10:49:10;;;;;;;33.30;23.80;;;;;;;1.59;83.16;101297.05;105482;1263;69250;-76
2024/01/28 10:51:39;;;;;;;30.70;24.10;;;;;;;1.58;83.67;101300.59;105518;1255;70687;-76
2024/01/28 10:54:07;;;;;;;36.40;27.50;;;;;;;1.55;83.37;101304.55;105547;1256;59795;-77
2024/01/28 10:56:39;;;;;;;28.30;20.60;;;;;;;1.51;83.34;101299.48;105672;1258;59744;-76
2024/01/28 10:59:07;;;;;;;32.50;23.30;;;;;;;1.53;83.10;101300.84;105574;1258;72104;-76
2024/01/28 11:01:35;;;;;;;26.80;19.20;;;;;;;1.56;82.79;101298.73;105535;1256;68488;-77
2024/01/28 11:04:03;;;;;;;24.90;18.80;;;;;;;1.53;82.88;101304.48;105529;1257;72668;-76
2024/01/28 11:06:31;;;;;;;26.40;17.80;;;;;;;1.50;83.57;101302.02;105585;1259;60022;-76
2024/01/28 11:08:59;;;;;;;25.90;18.10;;;;;;;1.50;83.66;101300.10;105592;1260;60182;-76
2024/01/28 11:11:27;;;;;;;25.30;18.70;;;;;;;1.48;83.49;101306.13;105843;1255;73483;-76
2024/01/28 11:13:58;;;;;;;25.40;16.90;;;;;;;1.49;83.16;101306.73;105543;1260;70119;-77